sensor_id;sensor_type;location;lat;lon;timestamp;pressure;altitude;pressure_sealevel;temperature;humidity
18500;BME280;9379;52.134;11.576;2024-01-27T00:00:50;102253.63;;;7.99;84.67
18500;BME280;9379;52.134;11.576;2024-01-27T00:03:17;102243.97;;;8.15;84.16
18500;BME280;9379;52.134;11.576;2024-01-27T00:05:44;102252.72;;;8.00;84.06
18500;BME280;9379;52.134;11.576;2024-01-27T00:08:11;102257.34;;;7.60;85.83
18500;BME280;9379;52.134;11.576;2024-01-27T00:10:40;102255.63;;;7.42;86.43
18500;BME280;9379;52.134;11.576;2024-01-27T00:13:06;102255.13;;;7.70;86.63
18500;BME280;9379;52.134;11.576;2024-01-27T00:15:33;102253.16;;;8.08;85.38
18500;BME280;9379;52.134;11.576;2024-01-27T00:18:00;102262.34;;;8.18;83.89
18500;BME280;9379;52.134;11.576;2024-01-27T00:20:27;102272.03;;;8.02;84.46
18500;BME280;9379;52.134;11.576;2024-01-27T00:22:54;102273.91;;;7.64;85.32
18500;BME280;9379;52.134;11.576;2024-01-27T00:25:21;102268.63;;;8.00;84.97
18500;BME280;9379;52.134;11.576;2024-01-27T00:27:49;102268.44;;;8.03;84.11
18500;BME280;9379;52.134;11.576;2024-01-27T00:30:16;102272.66;;;7.89;85.37
18500;BME280;9379;52.134;11.576;2024-01-27T00:32:43;102269.00;;;7.92;85.89
18500;BME280;9379;52.134;11.576;2024-01-27T00:35:11;102267.97;;;7.95;84.92
18500;BME280;9379;52.134;11.576;2024-01-27T00:37:40;102266.44;;;7.90;85.40
18500;BME280;9379;52.134;11.576;2024-01-27T00:40:08;102260.19;;;7.92;85.21
18500;BME280;9379;52.134;11.576;2024-01-27T00:42:35;102268.44;;;7.85;85.05
18500;BME280;9379;52.134;11.576;2024-01-27T00:45:04;102266.09;;;7.79;85.48
18500;BME280;9379;52.134;11.576;2024-01-27T00:47:31;102272.19;;;7.45;85.94
18500;BME280;9379;52.134;11.576;2024-01-27T00:49:58;102270.13;;;7.69;85.06
18500;BME280;9379;52.134;11.576;2024-01-27T00:52:26;102284.50;;;7.64;85.14
18500;BME280;9379;52.134;11.576;2024-01-27T00:54:53;102275.38;;;7.52;85.64
18500;BME280;9379;52.134;11.576;2024-01-27T00:57:19;102292.59;;;7.60;85.54
18500;BME280;9379;52.134;11.576;2024-01-27T00:59:46;102290.28;;;7.72;85.62
18500;BME280;9379;52.134;11.576;2024-01-27T01:02:15;102295.31;;;7.59;86.49
18500;BME280;9379;52.134;11.576;2024-01-27T01:04:42;102291.91;;;7.57;86.12
18500;BME280;9379;52.134;11.576;2024-01-27T01:07:10;102303.06;;;7.81;85.64
18500;BME280;9379;52.134;11.576;2024-01-27T01:09:37;102301.38;;;7.80;85.11
18500;BME280;9379;52.134;11.576;2024-01-27T01:12:04;102312.50;;;7.86;84.61
18500;BME280;9379;52.134;11.576;2024-01-27T01:14:31;102328.94;;;7.93;84.86
18500;BME280;9379;52.134;11.576;2024-01-27T01:16:58;102330.25;;;7.84;85.59
18500;BME280;9379;52.134;11.576;2024-01-27T01:19:27;102325.09;;;7.64;86.24
18500;BME280;9379;52.134;11.576;2024-01-27T01:21:54;102329.03;;;7.55;86.26
18500;BME280;9379;52.134;11.576;2024-01-27T01:24:20;102329.66;;;7.60;85.45
18500;BME280;9379;52.134;11.576;2024-01-27T01:26:47;102342.34;;;7.90;85.20
18500;BME280;9379;52.134;11.576;2024-01-27T01:29:14;102331.97;;;7.85;85.00
18500;BME280;9379;52.134;11.576;2024-01-27T01:31:41;102347.72;;;7.88;84.62
18500;BME280;9379;52.134;11.576;2024-01-27T01:34:09;102351.75;;;7.96;84.48
18500;BME280;9379;52.134;11.576;2024-01-27T01:36:37;102348.41;;;8.09;84.47
18500;BME280;9379;52.134;11.576;2024-01-27T01:39:04;102343.97;;;8.10;84.46
18500;BME280;9379;52.134;11.576;2024-01-27T01:41:31;102367.03;;;7.90;84.85
18500;BME280;9379;52.134;11.576;2024-01-27T01:43:58;102360.28;;;8.02;85.41
18500;BME280;9379;52.134;11.576;2024-01-27T01:46:25;102361.00;;;7.87;85.18
18500;BME280;9379;52.134;11.576;2024-01-27T01:48:52;102365.13;;;8.11;84.80
18500;BME280;9379;52.134;11.576;2024-01-27T01:51:19;102361.81;;;7.89;85.98
18500;BME280;9379;52.134;11.576;2024-01-27T01:53:48;102361.66;;;7.73;87.24
18500;BME280;9379;52.134;11.576;2024-01-27T01:56:15;102357.81;;;7.98;85.43
18500;BME280;9379;52.134;11.576;2024-01-27T01:58:42;102356.75;;;8.02;85.15
18500;BME280;9379;52.134;11.576;2024-01-27T02:01:09;102364.75;;;7.83;86.60
18500;BME280;9379;52.134;11.576;2024-01-27T02:03:36;102360.44;;;7.99;85.19
18500;BME280;9379;52.134;11.576;2024-01-27T02:06:06;102364.31;;;8.09;84.97
18500;BME280;9379;52.134;11.576;2024-01-27T02:08:33;102361.78;;;8.25;84.43
18500;BME280;9379;52.134;11.576;2024-01-27T02:11:01;102362.06;;;8.19;84.55
18500;BME280;9379;52.134;11.576;2024-01-27T02:13:28;102369.91;;;7.67;86.22
18500;BME280;9379;52.134;11.576;2024-01-27T02:15:55;102363.19;;;7.96;85.31
18500;BME280;9379;52.134;11.576;2024-01-27T02:18:22;102365.84;;;7.96;84.73
18500;BME280;9379;52.134;11.576;2024-01-27T02:20:49;102370.94;;;8.01;84.49
18500;BME280;9379;52.134;11.576;2024-01-27T02:23:16;102374.13;;;8.07;85.01
18500;BME280;9379;52.134;11.576;2024-01-27T02:25:44;102377.22;;;7.98;84.81
18500;BME280;9379;52.134;11.576;2024-01-27T02:28:11;102370.69;;;7.88;85.40
18500;BME280;9379;52.134;11.576;2024-01-27T02:30:39;102375.31;;;8.02;84.63
18500;BME280;9379;52.134;11.576;2024-01-27T02:33:08;102368.38;;;8.16;84.51
18500;BME280;9379;52.134;11.576;2024-01-27T02:35:35;102368.19;;;8.38;83.89
18500;BME280;9379;52.134;11.576;2024-01-27T02:38:02;102377.63;;;8.08;84.79
18500;BME280;9379;52.134;11.576;2024-01-27T02:40:29;102373.38;;;8.23;84.96
18500;BME280;9379;52.134;11.576;2024-01-27T02:42:57;102377.03;;;8.20;86.02
18500;BME280;9379;52.134;11.576;2024-01-27T02:45:24;102370.88;;;8.19;86.17
18500;BME280;9379;52.134;11.576;2024-01-27T02:47:51;102372.44;;;8.24;85.46
18500;BME280;9379;52.134;11.576;2024-01-27T02:50:18;102372.66;;;8.02;86.77
18500;BME280;9379;52.134;11.576;2024-01-27T02:52:45;102379.91;;;7.79;87.34
18500;BME280;9379;52.134;11.576;2024-01-27T02:55:12;102378.66;;;7.86;86.87
18500;BME280;9379;52.134;11.576;2024-01-27T02:57:40;102379.81;;;8.00;87.50
18500;BME280;9379;52.134;11.576;2024-01-27T03:00:10;102373.59;;;8.01;86.74
18500;BME280;9379;52.134;11.576;2024-01-27T03:02:36;102384.53;;;7.93;87.70
18500;BME280;9379;52.134;11.576;2024-01-27T03:05:04;102379.53;;;7.87;87.51
18500;BME280;9379;52.134;11.576;2024-01-27T03:07:31;102378.28;;;7.58;88.30
18500;BME280;9379;52.134;11.576;2024-01-27T03:09:58;102379.84;;;7.62;89.09
18500;BME280;9379;52.134;11.576;2024-01-27T03:12:25;102383.34;;;7.81;87.31
18500;BME280;9379;52.134;11.576;2024-01-27T03:14:53;102383.34;;;7.63;87.29
18500;BME280;9379;52.134;11.576;2024-01-27T03:17:21;102388.47;;;7.84;86.41
18500;BME280;9379;52.134;11.576;2024-01-27T03:19:48;102383.75;;;7.91;86.51
18500;BME280;9379;52.134;11.576;2024-01-27T03:22:15;102389.72;;;7.77;87.28
18500;BME280;9379;52.134;11.576;2024-01-27T03:24:42;102390.09;;;8.06;86.89
18500;BME280;9379;52.134;11.576;2024-01-27T03:27:09;102395.63;;;8.01;87.10
18500;BME280;9379;52.134;11.576;2024-01-27T03:29:36;102395.63;;;8.01;86.60
18500;BME280;9379;52.134;11.576;2024-01-27T03:32:03;102403.81;;;8.14;87.11
18500;BME280;9379;52.134;11.576;2024-01-27T03:34:32;102398.28;;;8.18;87.08
18500;BME280;9379;52.134;11.576;2024-01-27T03:36:59;102400.09;;;8.18;86.64
18500;BME280;9379;52.134;11.576;2024-01-27T03:39:25;102403.16;;;7.92;87.94
18500;BME280;9379;52.134;11.576;2024-01-27T03:41:52;102403.66;;;7.81;87.95
18500;BME280;9379;52.134;11.576;2024-01-27T03:44:19;102404.25;;;7.87;87.87
18500;BME280;9379;52.134;11.576;2024-01-27T03:46:46;102398.19;;;7.67;88.92
18500;BME280;9379;52.134;11.576;2024-01-27T03:49:13;102407.88;;;7.85;88.12
18500;BME280;9379;52.134;11.576;2024-01-27T03:51:42;102405.22;;;7.85;88.52
18500;BME280;9379;52.134;11.576;2024-01-27T03:54:08;102406.31;;;8.00;87.56
18500;BME280;9379;52.134;11.576;2024-01-27T03:56:35;102407.69;;;7.71;88.49
18500;BME280;9379;52.134;11.576;2024-01-27T03:59:02;102403.78;;;7.97;88.24
18500;BME280;9379;52.134;11.576;2024-01-27T04:01:31;102408.09;;;7.99;88.29
18500;BME280;9379;52.134;11.576;2024-01-27T04:03:58;102399.59;;;7.74;88.61
18500;BME280;9379;52.134;11.576;2024-01-27T04:06:25;102404.59;;;7.61;89.11
18500;BME280;9379;52.134;11.576;2024-01-27T04:08:53;102402.88;;;7.60;89.19
18500;BME280;9379;52.134;11.576;2024-01-27T04:11:20;102399.88;;;7.49;89.58
18500;BME280;9379;52.134;11.576;2024-01-27T04:13:48;102401.41;;;7.54;89.82
18500;BME280;9379;52.134;11.576;2024-01-27T04:16:16;102415.56;;;7.53;89.79
18500;BME280;9379;52.134;11.576;2024-01-27T04:18:43;102422.31;;;7.40;90.21
18500;BME280;9379;52.134;11.576;2024-01-27T04:21:10;102417.25;;;7.36;90.79
18500;BME280;9379;52.134;11.576;2024-01-27T04:23:37;102424.47;;;7.51;90.91
18500;BME280;9379;52.134;11.576;2024-01-27T04:26:05;102419.69;;;7.40;90.71
18500;BME280;9379;52.134;11.576;2024-01-27T04:28:34;102427.13;;;7.51;90.60
18500;BME280;9379;52.134;11.576;2024-01-27T04:31:01;102433.13;;;7.73;89.95
18500;BME280;9379;52.134;11.576;2024-01-27T04:33:28;102435.16;;;7.68;90.29
18500;BME280;9379;52.134;11.576;2024-01-27T04:35:55;102432.59;;;7.67;90.31
18500;BME280;9379;52.134;11.576;2024-01-27T04:38:22;102434.97;;;7.52;90.71
18500;BME280;9379;52.134;11.576;2024-01-27T04:40:50;102427.94;;;7.53;90.65
18500;BME280;9379;52.134;11.576;2024-01-27T04:43:19;102427.50;;;7.43;91.72
18500;BME280;9379;52.134;11.576;2024-01-27T04:45:47;102430.72;;;7.69;90.41
18500;BME280;9379;52.134;11.576;2024-01-27T04:48:14;102424.84;;;7.43;91.26
18500;BME280;9379;52.134;11.576;2024-01-27T04:50:41;102433.50;;;7.47;92.14
18500;BME280;9379;52.134;11.576;2024-01-27T04:53:08;102432.91;;;7.21;91.99
18500;BME280;9379;52.134;11.576;2024-01-27T04:55:35;102443.22;;;7.46;91.38
18500;BME280;9379;52.134;11.576;2024-01-27T04:58:02;102448.44;;;7.48;91.04
18500;BME280;9379;52.134;11.576;2024-01-27T05:00:30;102457.97;;;7.71;90.46
18500;BME280;9379;52.134;11.576;2024-01-27T05:02:57;102448.28;;;7.51;90.65
18500;BME280;9379;52.134;11.576;2024-01-27T05:05:28;102463.13;;;7.55;90.70
18500;BME280;9379;52.134;11.576;2024-01-27T05:07:55;102470.91;;;7.58;90.50
18500;BME280;9379;52.134;11.576;2024-01-27T05:10:22;102459.69;;;7.72;90.15
18500;BME280;9379;52.134;11.576;2024-01-27T05:12:50;102462.53;;;7.48;91.34
18500;BME280;9379;52.134;11.576;2024-01-27T05:15:17;102472.31;;;7.46;90.93
18500;BME280;9379;52.134;11.576;2024-01-27T05:17:46;102471.63;;;7.22;92.46
18500;BME280;9379;52.134;11.576;2024-01-27T05:20:13;102475.34;;;7.18;92.62
18500;BME280;9379;52.134;11.576;2024-01-27T05:22:39;102464.78;;;7.37;91.79
18500;BME280;9379;52.134;11.576;2024-01-27T05:25:07;102463.28;;;7.31;91.41
18500;BME280;9379;52.134;11.576;2024-01-27T05:27:36;102466.00;;;7.30;91.94
18500;BME280;9379;52.134;11.576;2024-01-27T05:30:04;102479.72;;;7.19;92.96
18500;BME280;9379;52.134;11.576;2024-01-27T05:32:31;102493.09;;;7.35;92.26
18500;BME280;9379;52.134;11.576;2024-01-27T05:34:59;102484.53;;;7.30;93.01
18500;BME280;9379;52.134;11.576;2024-01-27T05:37:26;102475.19;;;7.42;92.56
18500;BME280;9379;52.134;11.576;2024-01-27T05:39:53;102489.47;;;7.17;93.62
18500;BME280;9379;52.134;11.576;2024-01-27T05:42:21;102491.47;;;7.32;92.69
18500;BME280;9379;52.134;11.576;2024-01-27T05:44:48;102482.91;;;7.46;93.25
18500;BME280;9379;52.134;11.576;2024-01-27T05:47:15;102495.69;;;7.37;92.58
18500;BME280;9379;52.134;11.576;2024-01-27T05:49:42;102486.47;;;7.45;92.35
18500;BME280;9379;52.134;11.576;2024-01-27T05:52:10;102494.13;;;7.12;93.46
18500;BME280;9379;52.134;11.576;2024-01-27T05:54:39;102492.88;;;7.40;92.79
18500;BME280;9379;52.134;11.576;2024-01-27T05:57:07;102492.78;;;7.22;93.09
18500;BME280;9379;52.134;11.576;2024-01-27T05:59:34;102493.84;;;6.98;94.08
18500;BME280;9379;52.134;11.576;2024-01-27T06:02:00;102494.56;;;7.22;93.00
18500;BME280;9379;52.134;11.576;2024-01-27T06:04:28;102493.34;;;7.49;92.09
18500;BME280;9379;52.134;11.576;2024-01-27T06:06:56;102505.00;;;7.45;92.13
18500;BME280;9379;52.134;11.576;2024-01-27T06:09:25;102511.16;;;7.25;93.00
18500;BME280;9379;52.134;11.576;2024-01-27T06:11:51;102510.47;;;7.41;92.31
18500;BME280;9379;52.134;11.576;2024-01-27T06:14:18;102506.63;;;7.48;91.87
18500;BME280;9379;52.134;11.576;2024-01-27T06:16:45;102505.22;;;7.59;91.54
18500;BME280;9379;52.134;11.576;2024-01-27T06:19:12;102504.84;;;7.48;92.09
18500;BME280;9379;52.134;11.576;2024-01-27T06:21:39;102510.59;;;7.19;93.73
18500;BME280;9379;52.134;11.576;2024-01-27T06:24:06;102509.97;;;7.12;94.53
18500;BME280;9379;52.134;11.576;2024-01-27T06:26:34;102505.69;;;7.10;94.46
18500;BME280;9379;52.134;11.576;2024-01-27T06:29:00;102506.41;;;7.13;93.96
18500;BME280;9379;52.134;11.576;2024-01-27T06:31:28;102508.25;;;7.31;93.45
18500;BME280;9379;52.134;11.576;2024-01-27T06:33:55;102513.47;;;7.33;93.06
18500;BME280;9379;52.134;11.576;2024-01-27T06:36:22;102517.38;;;7.45;92.88
18500;BME280;9379;52.134;11.576;2024-01-27T06:38:50;102517.66;;;7.18;93.91
18500;BME280;9379;52.134;11.576;2024-01-27T06:41:17;102529.63;;;7.07;95.03
18500;BME280;9379;52.134;11.576;2024-01-27T06:43:45;102531.34;;;7.08;95.08
18500;BME280;9379;52.134;11.576;2024-01-27T06:46:12;102532.47;;;7.22;94.36
18500;BME280;9379;52.134;11.576;2024-01-27T06:48:39;102536.88;;;7.01;94.77
18500;BME280;9379;52.134;11.576;2024-01-27T06:51:06;102532.94;;;7.32;93.58
18500;BME280;9379;52.134;11.576;2024-01-27T06:53:33;102527.09;;;7.03;93.90
18500;BME280;9379;52.134;11.576;2024-01-27T06:56:00;102540.56;;;7.38;94.21
18500;BME280;9379;52.134;11.576;2024-01-27T06:58:27;102535.22;;;7.40;93.55
18500;BME280;9379;52.134;11.576;2024-01-27T07:00:55;102534.38;;;7.19;94.03
18500;BME280;9379;52.134;11.576;2024-01-27T07:03:22;102543.63;;;7.29;93.53
18500;BME280;9379;52.134;11.576;2024-01-27T07:05:49;102539.94;;;7.13;94.14
18500;BME280;9379;52.134;11.576;2024-01-27T07:08:16;102532.91;;;7.12;94.09
18500;BME280;9379;52.134;11.576;2024-01-27T07:10:43;102545.53;;;7.05;93.78
18500;BME280;9379;52.134;11.576;2024-01-27T07:13:09;102546.84;;;7.15;93.81
18500;BME280;9379;52.134;11.576;2024-01-27T07:15:38;102551.84;;;7.23;93.85
18500;BME280;9379;52.134;11.576;2024-01-27T07:18:07;102552.34;;;7.11;93.35
18500;BME280;9379;52.134;11.576;2024-01-27T07:20:34;102554.16;;;7.10;93.90
18500;BME280;9379;52.134;11.576;2024-01-27T07:23:02;102546.84;;;7.15;93.61
18500;BME280;9379;52.134;11.576;2024-01-27T07:25:29;102564.19;;;7.22;94.12
18500;BME280;9379;52.134;11.576;2024-01-27T07:27:56;102561.06;;;7.13;93.84
18500;BME280;9379;52.134;11.576;2024-01-27T07:30:23;102557.59;;;7.32;93.21
18500;BME280;9379;52.134;11.576;2024-01-27T07:32:50;102556.25;;;7.22;93.73
18500;BME280;9379;52.134;11.576;2024-01-27T07:35:18;102554.34;;;7.26;93.75
18500;BME280;9379;52.134;11.576;2024-01-27T07:37:45;102559.03;;;7.40;93.17
18500;BME280;9379;52.134;11.576;2024-01-27T07:40:12;102562.81;;;7.34;93.43
18500;BME280;9379;52.134;11.576;2024-01-27T07:42:39;102571.06;;;7.26;93.64
18500;BME280;9379;52.134;11.576;2024-01-27T07:45:07;102571.06;;;7.26;93.70
18500;BME280;9379;52.134;11.576;2024-01-27T07:47:34;102570.72;;;7.14;93.80
18500;BME280;9379;52.134;11.576;2024-01-27T07:50:01;102567.19;;;6.93;94.00
18500;BME280;9379;52.134;11.576;2024-01-27T07:52:29;102573.56;;;7.09;93.71
18500;BME280;9379;52.134;11.576;2024-01-27T07:54:56;102580.94;;;7.43;92.63
18500;BME280;9379;52.134;11.576;2024-01-27T07:57:24;102587.94;;;7.44;92.01
18500;BME280;9379;52.134;11.576;2024-01-27T07:59:51;102595.19;;;7.59;91.65
18500;BME280;9379;52.134;11.576;2024-01-27T08:02:18;102593.56;;;7.57;91.60
18500;BME280;9379;52.134;11.576;2024-01-27T08:04:44;102605.09;;;7.75;90.89
18500;BME280;9379;52.134;11.576;2024-01-27T08:07:11;102604.53;;;7.68;90.86
18500;BME280;9379;52.134;11.576;2024-01-27T08:09:41;102613.31;;;7.89;90.46
18500;BME280;9379;52.134;11.576;2024-01-27T08:12:08;102619.66;;;7.85;90.75
18500;BME280;9379;52.134;11.576;2024-01-27T08:14:35;102627.56;;;8.05;90.05
18500;BME280;9379;52.134;11.576;2024-01-27T08:17:02;102621.19;;;8.09;89.52
18500;BME280;9379;52.134;11.576;2024-01-27T08:19:29;102623.75;;;7.92;90.18
18500;BME280;9379;52.134;11.576;2024-01-27T08:21:56;102618.88;;;7.83;89.69
18500;BME280;9379;52.134;11.576;2024-01-27T08:24:24;102629.28;;;8.06;88.74
18500;BME280;9379;52.134;11.576;2024-01-27T08:26:52;102625.78;;;7.67;89.72
18500;BME280;9379;52.134;11.576;2024-01-27T08:29:19;102631.06;;;7.67;90.08
18500;BME280;9379;52.134;11.576;2024-01-27T08:31:46;102630.13;;;7.68;89.61
18500;BME280;9379;52.134;11.576;2024-01-27T08:34:13;102639.41;;;7.78;89.72
18500;BME280;9379;52.134;11.576;2024-01-27T08:36:40;102633.03;;;8.21;88.11
18500;BME280;9379;52.134;11.576;2024-01-27T08:39:07;102638.84;;;8.10;88.37
18500;BME280;9379;52.134;11.576;2024-01-27T08:41:34;102642.56;;;8.25;88.35
18500;BME280;9379;52.134;11.576;2024-01-27T08:44:03;102642.50;;;8.27;87.38
18500;BME280;9379;52.134;11.576;2024-01-27T08:46:30;102645.59;;;7.97;88.96
18500;BME280;9379;52.134;11.576;2024-01-27T08:48:57;102649.97;;;8.37;87.01
18500;BME280;9379;52.134;11.576;2024-01-27T08:51:24;102646.16;;;8.24;87.11
18500;BME280;9379;52.134;11.576;2024-01-27T08:53:51;102642.91;;;8.57;86.67
18500;BME280;9379;52.134;11.576;2024-01-27T08:56:18;102635.34;;;8.29;86.24
18500;BME280;9379;52.134;11.576;2024-01-27T08:58:45;102642.34;;;8.11;87.73
18500;BME280;9379;52.134;11.576;2024-01-27T09:01:15;102640.75;;;8.46;87.11
18500;BME280;9379;52.134;11.576;2024-01-27T09:03:42;102632.44;;;8.35;87.38
18500;BME280;9379;52.134;11.576;2024-01-27T09:06:09;102644.28;;;8.26;87.08
18500;BME280;9379;52.134;11.576;2024-01-27T09:08:36;102645.91;;;8.49;86.66
18500;BME280;9379;52.134;11.576;2024-01-27T09:11:03;102644.84;;;8.34;87.07
18500;BME280;9379;52.134;11.576;2024-01-27T09:13:30;102646.78;;;8.29;87.70
18500;BME280;9379;52.134;11.576;2024-01-27T09:15:57;102638.31;;;8.41;87.04
18500;BME280;9379;52.134;11.576;2024-01-27T09:18:26;102645.03;;;8.48;87.03
18500;BME280;9379;52.134;11.576;2024-01-27T09:20:53;102651.41;;;8.05;87.92
18500;BME280;9379;52.134;11.576;2024-01-27T09:23:19;102647.88;;;8.25;87.96
18500;BME280;9379;52.134;11.576;2024-01-27T09:25:46;102662.31;;;8.38;88.19
18500;BME280;9379;52.134;11.576;2024-01-27T09:28:13;102657.28;;;8.51;87.64
18500;BME280;9379;52.134;11.576;2024-01-27T09:30:41;102659.88;;;8.32;87.47
18500;BME280;9379;52.134;11.576;2024-01-27T09:33:08;102667.16;;;8.66;86.85
18500;BME280;9379;52.134;11.576;2024-01-27T09:35:37;102663.75;;;8.45;87.26
18500;BME280;9379;52.134;11.576;2024-01-27T09:38:04;102658.34;;;8.66;86.79
18500;BME280;9379;52.134;11.576;2024-01-27T09:40:33;102660.72;;;8.72;86.36
18500;BME280;9379;52.134;11.576;2024-01-27T09:43:00;102652.50;;;8.59;86.68
18500;BME280;9379;52.134;11.576;2024-01-27T09:45:27;102652.78;;;8.33;87.27
18500;BME280;9379;52.134;11.576;2024-01-27T09:47:56;102658.28;;;8.48;86.47
18500;BME280;9379;52.134;11.576;2024-01-27T09:50:24;102668.78;;;9.06;85.57
18500;BME280;9379;52.134;11.576;2024-01-27T09:52:52;102673.56;;;8.81;86.39
18500;BME280;9379;52.134;11.576;2024-01-27T09:55:19;102668.88;;;8.67;86.22
18500;BME280;9379;52.134;11.576;2024-01-27T09:57:46;102676.38;;;9.31;85.65
18500;BME280;9379;52.134;11.576;2024-01-27T10:00:14;102682.59;;;9.13;85.25
18500;BME280;9379;52.134;11.576;2024-01-27T10:02:42;102689.25;;;9.22;85.11
18500;BME280;9379;52.134;11.576;2024-01-27T10:05:09;102685.56;;;9.07;85.77
18500;BME280;9379;52.134;11.576;2024-01-27T10:07:37;102684.19;;;9.17;86.06
18500;BME280;9379;52.134;11.576;2024-01-27T10:10:06;102690.69;;;9.46;84.59
18500;BME280;9379;52.134;11.576;2024-01-27T10:12:37;102686.00;;;9.51;84.13
18500;BME280;9379;52.134;11.576;2024-01-27T10:15:18;102690.09;;;9.22;85.63
18500;BME280;9379;52.134;11.576;2024-01-27T10:17:45;102687.78;;;8.97;85.66
18500;BME280;9379;52.134;11.576;2024-01-27T10:20:12;102695.47;;;9.03;86.07
18500;BME280;9379;52.134;11.576;2024-01-27T10:22:41;102695.81;;;8.96;85.49
18500;BME280;9379;52.134;11.576;2024-01-27T10:25:12;102709.84;;;9.17;84.73
18500;BME280;9379;52.134;11.576;2024-01-27T10:27:39;102705.00;;;9.25;85.36
18500;BME280;9379;52.134;11.576;2024-01-27T10:30:15;102698.13;;;9.21;83.89
18500;BME280;9379;52.134;11.576;2024-01-27T10:32:42;102708.63;;;9.41;83.42
18500;BME280;9379;52.134;11.576;2024-01-27T10:35:09;102715.16;;;9.17;84.33
18500;BME280;9379;52.134;11.576;2024-01-27T10:37:36;102705.53;;;9.68;83.55
18500;BME280;9379;52.134;11.576;2024-01-27T10:40:04;102707.34;;;9.50;83.08
18500;BME280;9379;52.134;11.576;2024-01-27T10:42:34;102698.81;;;9.43;82.91
18500;BME280;9379;52.134;11.576;2024-01-27T10:45:04;102704.81;;;9.47;83.03
18500;BME280;9379;52.134;11.576;2024-01-27T10:47:32;102697.25;;;9.39;83.60
18500;BME280;9379;52.134;11.576;2024-01-27T10:50:00;102696.75;;;10.00;82.83
18500;BME280;9379;52.134;11.576;2024-01-27T10:52:29;102697.78;;;9.80;82.58
18500;BME280;9379;52.134;11.576;2024-01-27T10:54:58;102702.53;;;10.08;82.87
18500;BME280;9379;52.134;11.576;2024-01-27T10:57:26;102699.59;;;9.97;81.45
18500;BME280;9379;52.134;11.576;2024-01-27T10:59:55;102704.03;;;9.97;81.04
18500;BME280;9379;52.134;11.576;2024-01-27T11:02:23;102715.19;;;10.20;81.29
18500;BME280;9379;52.134;11.576;2024-01-27T11:04:50;102719.72;;;10.51;81.19
18500;BME280;9379;52.134;11.576;2024-01-27T11:07:19;102719.03;;;9.98;81.10
18500;BME280;9379;52.134;11.576;2024-01-27T11:09:49;102723.03;;;9.89;80.67
18500;BME280;9379;52.134;11.576;2024-01-27T11:12:17;102729.78;;;10.46;80.27
18500;BME280;9379;52.134;11.576;2024-01-27T11:14:46;102721.72;;;10.64;80.94
18500;BME280;9379;52.134;11.576;2024-01-27T11:17:16;102728.91;;;10.46;78.81
18500;BME280;9379;52.134;11.576;2024-01-27T11:19:45;102708.69;;;11.06;79.05
18500;BME280;9379;52.134;11.576;2024-01-27T11:22:24;102713.34;;;10.87;78.81
18500;BME280;9379;52.134;11.576;2024-01-27T11:24:52;102721.66;;;10.97;78.64
18500;BME280;9379;52.134;11.576;2024-01-27T11:27:26;102727.50;;;10.72;77.52
18500;BME280;9379;52.134;11.576;2024-01-27T11:29:55;102727.41;;;10.40;78.25
18500;BME280;9379;52.134;11.576;2024-01-27T11:32:26;102727.22;;;10.61;78.82
18500;BME280;9379;52.134;11.576;2024-01-27T11:34:53;102722.94;;;10.58;78.92
18500;BME280;9379;52.134;11.576;2024-01-27T11:37:20;102727.00;;;10.65;78.28
18500;BME280;9379;52.134;11.576;2024-01-27T11:39:50;102718.66;;;10.87;77.30
18500;BME280;9379;52.134;11.576;2024-01-27T11:42:17;102717.88;;;10.85;78.04
18500;BME280;9379;52.134;11.576;2024-01-27T11:44:45;102708.53;;;11.09;77.24
18500;BME280;9379;52.134;11.576;2024-01-27T11:47:15;102710.69;;;11.03;77.18
18500;BME280;9379;52.134;11.576;2024-01-27T11:49:43;102706.66;;;10.96;76.55
18500;BME280;9379;52.134;11.576;2024-01-27T11:52:10;102697.88;;;11.25;77.46
18500;BME280;9379;52.134;11.576;2024-01-27T11:54:37;102704.63;;;11.47;76.51
18500;BME280;9379;52.134;11.576;2024-01-27T11:57:04;102708.88;;;11.35;76.34
18500;BME280;9379;52.134;11.576;2024-01-27T11:59:33;102703.59;;;11.33;76.77
18500;BME280;9379;52.134;11.576;2024-01-27T12:02:00;102706.16;;;10.89;76.66
18500;BME280;9379;52.134;11.576;2024-01-27T12:04:28;102714.66;;;11.12;76.79
18500;BME280;9379;52.134;11.576;2024-01-27T12:06:57;102706.59;;;11.43;76.02
18500;BME280;9379;52.134;11.576;2024-01-27T12:09:24;102709.78;;;11.34;76.54
18500;BME280;9379;52.134;11.576;2024-01-27T12:11:51;102705.88;;;11.55;76.01
18500;BME280;9379;52.134;11.576;2024-01-27T12:14:18;102703.94;;;11.73;75.25
18500;BME280;9379;52.134;11.576;2024-01-27T12:16:44;102707.22;;;11.32;75.18
18500;BME280;9379;52.134;11.576;2024-01-27T12:19:13;102714.31;;;11.48;76.74
18500;BME280;9379;52.134;11.576;2024-01-27T12:21:47;102719.41;;;11.82;75.02
18500;BME280;9379;52.134;11.576;2024-01-27T12:24:17;102715.09;;;11.50;74.76
18500;BME280;9379;52.134;11.576;2024-01-27T12:26:45;102712.25;;;11.53;75.13
18500;BME280;9379;52.134;11.576;2024-01-27T12:29:12;102726.50;;;11.52;75.42
18500;BME280;9379;52.134;11.576;2024-01-27T12:31:39;102717.09;;;11.46;76.07
18500;BME280;9379;52.134;11.576;2024-01-27T12:34:07;102720.88;;;11.72;75.37
18500;BME280;9379;52.134;11.576;2024-01-27T12:36:34;102727.16;;;11.71;74.90
18500;BME280;9379;52.134;11.576;2024-01-27T12:39:06;102727.31;;;11.84;75.07
18500;BME280;9379;52.134;11.576;2024-01-27T12:41:35;102732.22;;;11.14;75.13
18500;BME280;9379;52.134;11.576;2024-01-27T12:44:02;102728.81;;;11.12;75.39
18500;BME280;9379;52.134;11.576;2024-01-27T12:46:29;102732.31;;;11.13;74.54
18500;BME280;9379;52.134;11.576;2024-01-27T12:48:57;102737.22;;;11.04;76.73
18500;BME280;9379;52.134;11.576;2024-01-27T12:51:24;102736.00;;;10.94;76.35
18500;BME280;9379;52.134;11.576;2024-01-27T12:53:50;102733.84;;;10.69;77.01
18500;BME280;9379;52.134;11.576;2024-01-27T12:56:17;102736.25;;;10.74;75.50
18500;BME280;9379;52.134;11.576;2024-01-27T12:58:46;102741.13;;;10.66;76.53